x

Half Moon Bay - 24nm Ssw Of San Francisco, Ca (46012) Wave Buoy

6:50pm - Fri 9th Dec 2016 All times are PST. -8 hours from GMT.

  • Sig Wave height 6.9ft
  • Swell Direction
  • Peak Period 9s
  • Average Period 8s
  • Wind
    11mph, 13mph gusts
  • Sea Temp 55°f
  • Air Temp 55°f
  • Sea Pressure 1020.3mb
  • Half Moon Bay - 24nm Ssw Of San Francisco, Ca
  • Half Moon Bay - 24nm Ssw Of San Francisco, Ca

More Historic Weather Station data

Upgrade to MSW Pro to gain access to the past 30 days of data for over 8000 Wavebouys and Weather Stations around the globe.

Join Pro

Comparision Forecast

View Surf forecast
   
Fri 12/09 6:50pm 7ft 9s 8s 11 13 mph 1020.3mb 55f 55f
5:50pm 6.5ft 9s 8s 11
mph
1020.7mb 55f 55f
4:50pm 7ft 9s 8s 11 13 mph 1020.9mb 55f 55f
3:50pm 7ft 15s 8s 11 13 mph 1021.4mb 55f 55f
2:50pm 6ft 9s 8s 11
mph
1021.7mb 55f 55f
1:50pm 7ft 15s 8s 9 11 mph 1021.9mb 55f 56f
12:50pm 6ft 9s 8s 11 13 mph 1022.2mb 55f 55f
11:50am 6ft 9s 8s 9 11 mph 1023.2mb 55f 55f
10:50am 6ft 9s 8s 7 9 mph 1024.2mb 55f 56f
9:50am 5.5ft 9s 8s 7
mph
1024mb 55f 56f
8:50am 5ft 9s 7s 7 9 mph 1023.3mb 55f 56f
7:50am 5ft 9s 8s 7 9 mph 1022.7mb 55f 56f
6:50am 5ft 15s 7s 9 11 mph 1022.4mb 55f 56f
5:50am 5ft 9s 7s 11 13 mph 1021.7mb 55f 55f
4:50am 5ft 9s 7s 9 11 mph 1021.4mb 55f 56f
3:50am 6ft 16s 7s 11
mph
1021.7mb 55f 56f
2:50am 6ft 8s 7s 9
mph
1022mb 55f 56f
1:50am 6ft 16s 7s 11
mph
1021.8mb 55f 56f
12:50am 6.5ft 9s 7s 9
mph
1022mb 55f 55f
Thu 12/08 11:50pm 5.5ft 8s 6s 9 11 mph 1022mb 55f 56f
10:50pm 6ft 8s 6s 11 13 mph 1022mb 55f 56f
9:50pm 6.5ft 16s 7s 9 11 mph 1021.2mb 55f 56f
8:50pm 7ft 8s 6s 7 9 mph 1021.1mb 55f 56f
7:50pm 6.5ft 8s 6s 7 9 mph 1020.8mb 55f 56f
6:50pm 6.5ft 8s 7s 7 9 mph 1019.9mb 55f 56f
5:50pm 7ft 8s 6s 11
mph
1019.9mb 55f 55f
4:50pm 7ft 8s 6s 9 11 mph 1019.6mb 55f 56f
3:50pm 7.5ft 8s 7s 11 13 mph 1019.3mb 55f 56f
2:50pm 6.5ft 8s 6s 13 18 mph 1018.9mb 55f 56f
1:50pm 7ft 8s 7s 13 16 mph 1018.7mb 55f 56f
12:50pm 7.5ft 7s 6s 13 16 mph 1018.5mb 55f 56f
11:50am 7ft 7s 6s 16 18 mph 1018.8mb 55f 55f
10:50am 7.5ft 7s 6s 18 20 mph 1018.8mb 55f 55f
9:50am 7.5ft 7s 6s 16 20 mph 1018.6mb 55f 55f
8:50am 8.5ft 8s 6s 11 13 mph 1018.1mb 55f 55f
7:50am 9ft 8s 6s 13 16 mph 1017.3mb 55f 56f
6:50am 9ft 8s 6s 13 20 mph 1016.8mb 55f 55f
5:50am 10ft 7s 6s 22 27 mph 1015.8mb 55f 54f
4:50am 10ft 7s 6s 27 36 mph 1015.3mb 55f 54f
3:50am 10ft 7s 6s 29 36 mph 1015mb 55f 53f
2:50am 9ft 7s 6s 31 36 mph 1015.2mb 55f 53f
1:50am 8ft 6s 6s 31 36 mph 1015.1mb 55f 53f
12:50am 7.5ft 6s 5s 31 38 mph 1015mb 55f 53f
Wed 12/07 11:50pm 7ft 6s 5s 31 38 mph 1015.2mb 55f 53f
9:50pm 5ft 5s 5s 29 36 mph 1016.1mb 55f 51f
8:50pm 5ft 5s 5s 27 34 mph 1016.7mb 55f 51f
7:50pm 5ft 12s 5s 29 34 mph 1016.8mb 55f 50f
6:50pm 4.5ft 11s 5s 25 29 mph 1017.4mb 55f 51f
5:50pm 4.5ft 12s 5s 25 29 mph 1017.1mb 55f 52f
4:50pm 5ft 10s 6s 20 25 mph 1017.8mb 55f 53f
3:50pm 5ft 12s 7s 18 20 mph 1018.2mb 55f 52f
2:50pm 5ft 11s 7s 13 18 mph 1018.9mb 55f 51f
1:50pm 5.5ft 10s 7s 13 18 mph 1019.3mb 55f 51f
12:50pm 6.5ft 11s 8s 16 20 mph 1019.4mb 55f 51f
11:50am 6.5ft 13s 9s 13 18 mph 1020.4mb 55f 51f
10:50am 7ft 11s 9s 13 18 mph 1020.8mb 55f 51f
8:50am 7.5ft 11s 9s 11 13 mph 1021.1mb 55f 50f
7:50am 7.5ft 13s 9s 16 18 mph 1020.5mb 55f 51f
6:50am 7ft 13s 9s 11 16 mph 1020.2mb 55f 51f
5:50am 7.5ft 11s 9s 9 11 mph 1019.7mb 55f 51f
4:50am 8ft 12s 9s 9 11 mph 1019.4mb 55f 51f
3:50am 8ft 14s 9s 9 11 mph 1019.7mb 55f 51f
2:50am 8ft 12s 8s 11 16 mph 1019.9mb 55f 51f
1:50am 7.5ft 14s 8s 13 16 mph 1020.2mb 55f 51f
12:50am 7ft 14s 7s 13 18 mph 1020.2mb 55f 51f
Tue 12/06 11:50pm 7ft 14s 7s 16 20 mph 1020.2mb 55f 52f
10:50pm 7ft 14s 7s 18 20 mph 1020.2mb 55f 52f
9:50pm 6.5ft 14s 7s 18 22 mph 1019.7mb 55f 52f
8:50pm 8ft 14s 8s 20 22 mph 1019.4mb 55f 52f
7:50pm 7ft 15s 7s 16 20 mph 1019.3mb 55f 52f
6:50pm 7ft 14s 8s 18 20 mph 1019.3mb 55f 52f
5:50pm 8.5ft 14s 8s 16 20 mph 1019.3mb 55f 52f
4:50pm 8ft 11s 8s 16 18 mph 1018.7mb 55f 52f
3:50pm 9ft 15s 9s 18 22 mph 1018.7mb 55f 52f
2:50pm 9ft 11s 9s 13 18 mph 1018.5mb 55f 52f
1:50pm 9ft 12s 9s 16 18 mph 1018.5mb 55f 52f
12:50pm 8.5ft 11s 9s 11 16 mph 1018.8mb 55f 52f
11:50am 7.5ft 12s 8s 11 16 mph 1019.4mb 55f 52f
10:50am 8ft 13s 8s 13 16 mph 1019.7mb 55f 52f
9:50am 7.5ft 12s 8s 13 16 mph 1019.9mb 55f 52f
8:50am 9ft 14s 7s 16 18 mph 1019.3mb 55f 52f
7:50am 8.5ft 14s 7s 20 25 mph 1018.6mb 55f 52f
6:50am 9ft 13s 7s 22 27 mph 1018.2mb 55f 52f
5:50am 10ft 13s 7s 29 34 mph 1017.6mb 55f 52f
4:50am 11ft 14s 7s 34 40 mph 1016.9mb 55f 52f
3:50am 11.5ft 8s 7s 27 31 mph 1017.1mb 55f 52f